7NC9 weather

Spencer Field
Asheboro, North Carolina, United States

Public forecast

Using degrees Fahrenheit for public forecast. Weather courtesy of forecast.io.

Closest aviation weather report (METAR) to Spencer Field

Closest report is Asheboro Regional Airport, 4.4 nm (8.2 km) S. Retrieved 2020/04/02 04:55 UTC (51 minutes ago):

KHBI 020455Z AUTO 00000KT 10SM CLR 06/02 A3001 RMK AO2 T00550023

Closest aviation forecast (TAF) to Spencer Field

Closest forecast is Piedmont Triad International Airport, 22.3 nm (41.3 km) N. Retrieved 2020-04-02 00:22 UTC (5 hours ago):

TAF KGSO 012320Z 0200/0224 35010KT P6SM BKN060 FM021400 33012G22KT P6SM SKC